Time;durP1;ratioP1;P1;durP2;ratioP2;P2;SDS_P1;SDS_P2;PMS_P1;PMS_P2;Temp;Humidity;BMP_temperature;BMP_pressure;BME280_temperature;BME280_humidity;BME280_pressure;Samples;Min_cycle;Max_cycle;Signal;HPM_P1;HPM_P2
2020/12/31 00:01:53;;;;;;;23.67;8.80;;;;;;;3.41;100.00;99625.41;5007773;28;20052;-67
2020/12/31 00:04:19;;;;;;;21.97;9.00;;;;;;;3.42;100.00;99630.56;5022055;28;20040;-67
2020/12/31 00:06:44;;;;;;;22.43;8.97;;;;;;;3.26;100.00;99626.03;5024441;28;20461;-67
2020/12/31 00:09:10;;;;;;;22.63;7.90;;;;;;;3.33;100.00;99627.88;5019297;28;20034;-67
2020/12/31 00:11:35;;;;;;;25.13;10.17;;;;;;;3.26;100.00;99613.13;5023145;28;20029;-67
2020/12/31 00:14:07;;;;;;;17.93;6.90;;;;;;;3.23;100.00;99626.00;5039990;28;20029;-67
2020/12/31 00:16:33;;;;;;;24.23;9.00;;;;;;;3.24;100.00;99632.91;5027467;28;20493;-67
2020/12/31 00:18:58;;;;;;;24.63;8.10;;;;;;;3.22;100.00;99622.56;5024189;28;20283;-68
2020/12/31 00:21:24;;;;;;;16.23;6.87;;;;;;;3.20;100.00;99628.56;5023822;28;20413;-67
2020/12/31 00:23:49;;;;;;;20.00;7.53;;;;;;;3.11;100.00;99628.41;5024585;28;20523;-69
2020/12/31 00:26:15;;;;;;;20.77;8.23;;;;;;;3.08;100.00;99628.38;5024642;28;20033;-67
2020/12/31 00:28:40;;;;;;;22.80;8.70;;;;;;;2.93;100.00;99632.50;5014618;28;20037;-68
2020/12/31 00:31:05;;;;;;;24.63;9.40;;;;;;;2.81;100.00;99634.03;5024804;28;20707;-68
2020/12/31 00:33:31;;;;;;;24.70;9.63;;;;;;;2.67;100.00;99623.50;5024535;28;20038;-67
2020/12/31 00:35:57;;;;;;;20.43;7.80;;;;;;;2.64;100.00;99620.84;5025888;28;20075;-67
2020/12/31 00:38:23;;;;;;;22.97;8.17;;;;;;;2.68;100.00;99629.53;5028658;28;20087;-67
2020/12/31 00:40:48;;;;;;;27.20;10.13;;;;;;;2.66;100.00;99626.88;5024019;28;20041;-67
2020/12/31 00:43:14;;;;;;;26.90;10.40;;;;;;;2.58;100.00;99628.50;5020419;28;20295;-67
2020/12/31 00:45:39;;;;;;;20.60;7.53;;;;;;;2.62;100.00;99625.13;5036905;28;20036;-67
2020/12/31 00:48:05;;;;;;;18.83;7.43;;;;;;;2.64;100.00;99639.75;5038419;28;20040;-67
2020/12/31 00:50:30;;;;;;;22.57;6.33;;;;;;;2.65;100.00;99630.31;5026333;28;20033;-67
2020/12/31 00:52:56;;;;;;;18.83;7.90;;;;;;;2.62;100.00;99631.13;5021946;28;20029;-67
2020/12/31 00:55:21;;;;;;;20.13;8.10;;;;;;;2.63;100.00;99629.44;5025064;28;20532;-68
2020/12/31 00:57:46;;;;;;;19.10;7.60;;;;;;;2.45;100.00;99636.88;5023669;28;20067;-67
2020/12/31 01:00:13;;;;;;;24.70;9.07;;;;;;;2.49;100.00;99628.34;5027139;28;20107;-67
2020/12/31 01:02:39;;;;;;;22.77;8.70;;;;;;;2.41;100.00;99625.63;5011965;28;20741;-68
2020/12/31 01:05:08;;;;;;;25.47;8.03;;;;;;;2.52;100.00;99628.38;5026508;28;20829;-68
2020/12/31 01:07:34;;;;;;;22.60;7.97;;;;;;;2.44;100.00;99623.13;5025111;28;20295;-67
2020/12/31 01:09:59;;;;;;;22.10;8.53;;;;;;;2.39;100.00;99627.31;5011904;28;20281;-68
2020/12/31 01:12:25;;;;;;;23.03;8.97;;;;;;;2.49;100.00;99628.34;5026112;28;20033;-67
2020/12/31 01:14:50;;;;;;;24.00;8.83;;;;;;;2.39;100.00;99634.19;5028509;28;20025;-68
2020/12/31 01:17:15;;;;;;;23.47;8.40;;;;;;;2.47;100.00;99627.44;5023634;28;20024;-67
2020/12/31 01:19:41;;;;;;;22.63;8.53;;;;;;;2.50;100.00;99630.94;5037770;28;20040;-67
2020/12/31 01:22:06;;;;;;;20.87;7.53;;;;;;;2.46;100.00;99628.28;5015564;28;20465;-67
2020/12/31 01:24:31;;;;;;;25.13;8.53;;;;;;;2.47;100.00;99635.19;5026512;28;20037;-67
2020/12/31 01:26:57;;;;;;;23.10;7.83;;;;;;;2.39;100.00;99636.75;5017056;28;20033;-67
2020/12/31 01:29:22;;;;;;;15.37;6.87;;;;;;;2.54;100.00;99637.00;5015064;28;20022;-68
2020/12/31 01:31:48;;;;;;;22.27;7.50;;;;;;;2.42;100.00;99636.81;5035201;28;20559;-68
2020/12/31 01:34:14;;;;;;;23.13;8.20;;;;;;;2.47;100.00;99635.19;5027302;28;20582;-68
2020/12/31 01:36:40;;;;;;;22.10;8.87;;;;;;;2.48;100.00;99632.63;5024004;28;20033;-68
2020/12/31 01:39:05;;;;;;;19.77;7.67;;;;;;;2.46;100.00;99633.47;5021885;28;20299;-68
2020/12/31 01:41:31;;;;;;;18.77;6.83;;;;;;;2.39;100.00;99629.03;5023618;28;20095;-68
2020/12/31 01:44:14;;;;;;;21.60;8.40;;;;;;;2.49;100.00;99633.50;5027695;28;20040;-67
2020/12/31 01:46:43;;;;;;;25.83;9.13;;;;;;;2.46;100.00;99633.47;5015526;28;20061;-68
2020/12/31 01:49:11;;;;;;;20.97;7.20;;;;;;;2.45;100.00;99636.88;5014799;28;20281;-68
2020/12/31 01:51:39;;;;;;;23.50;8.63;;;;;;;2.45;100.00;99642.03;5025586;28;20268;-67
2020/12/31 01:54:04;;;;;;;18.63;8.27;;;;;;;2.45;100.00;99642.03;5025347;28;20715;-68
2020/12/31 01:56:32;;;;;;;20.40;7.90;;;;;;;2.47;100.00;99645.50;5014790;28;20371;-68
2020/12/31 01:58:58;;;;;;;23.03;7.97;;;;;;;2.49;100.00;99634.38;5027619;28;20037;-68
2020/12/31 02:01:24;;;;;;;23.10;7.90;;;;;;;2.51;100.00;99637.84;5027334;28;20905;-67
2020/12/31 02:03:51;;;;;;;28.20;8.27;;;;;;;2.48;100.00;99647.25;5027348;28;20320;-67
2020/12/31 02:06:19;;;;;;;20.50;8.43;;;;;;;2.45;100.00;99644.63;5017342;28;20704;-68
2020/12/31 02:08:45;;;;;;;22.07;8.13;;;;;;;2.55;100.00;99649.09;5023012;28;20359;-68
2020/12/31 02:11:14;;;;;;;23.27;7.70;;;;;;;2.55;100.00;99638.78;5029480;28;20371;-68
2020/12/31 02:13:40;;;;;;;23.77;8.27;;;;;;;2.50;100.00;99640.41;5026953;28;20295;-67
2020/12/31 02:16:10;;;;;;;23.60;8.80;;;;;;;2.43;100.00;99643.72;5026743;28;20276;-68
2020/12/31 02:18:35;;;;;;;20.33;8.83;;;;;;;2.43;100.00;99642.03;5022559;28;20643;-68
2020/12/31 02:21:01;;;;;;;20.87;7.50;;;;;;;2.54;100.00;99630.13;5028488;28;20288;-68
2020/12/31 02:23:27;;;;;;;22.80;8.97;;;;;;;2.51;100.00;99634.38;5030336;28;20083;-68
2020/12/31 02:25:52;;;;;;;21.50;9.00;;;;;;;2.48;100.00;99642.09;5017424;28;20608;-67
2020/12/31 02:28:18;;;;;;;18.83;8.40;;;;;;;2.42;100.00;99634.22;5021532;28;20071;-68
2020/12/31 02:30:43;;;;;;;22.13;8.17;;;;;;;2.45;100.00;99634.31;5030837;28;20060;-68
2020/12/31 02:33:09;;;;;;;21.13;8.30;;;;;;;2.51;100.00;99636.97;5029400;28;20423;-68
2020/12/31 02:35:34;;;;;;;18.77;8.57;;;;;;;2.52;100.00;99636.13;5013951;28;20088;-69
2020/12/31 02:37:59;;;;;;;21.50;8.20;;;;;;;2.52;100.00;99633.53;5031514;28;20021;-67
2020/12/31 02:40:25;;;;;;;23.17;8.87;;;;;;;2.52;100.00;99638.69;5051068;28;20021;-68
2020/12/31 02:42:50;;;;;;;22.87;8.90;;;;;;;2.53;100.00;99630.13;5015086;28;20493;-68
2020/12/31 02:45:16;;;;;;;20.43;7.87;;;;;;;2.45;100.00;99636.88;5016718;28;20104;-67
2020/12/31 02:47:42;;;;;;;21.33;8.43;;;;;;;2.45;100.00;99634.31;5028944;28;20083;-68
2020/12/31 02:50:07;;;;;;;21.87;8.30;;;;;;;2.34;100.00;99634.97;5031283;28;20447;-68
2020/12/31 02:52:32;;;;;;;23.00;8.97;;;;;;;2.27;100.00;99633.13;5025149;28;20283;-68
2020/12/31 02:54:58;;;;;;;20.80;8.47;;;;;;;2.28;100.00;99634.88;5011301;28;20034;-68
2020/12/31 02:57:23;;;;;;;21.70;8.67;;;;;;;2.32;100.00;99631.53;5010277;28;20477;-67
2020/12/31 02:59:49;;;;;;;18.80;8.03;;;;;;;2.30;100.00;99632.31;5011026;28;20022;-69
2020/12/31 03:02:14;;;;;;;23.30;8.77;;;;;;;2.31;100.00;99634.94;5012087;28;20017;-67
2020/12/31 03:04:39;;;;;;;21.83;9.03;;;;;;;2.38;100.00;99635.91;5011407;28;20033;-67
2020/12/31 03:07:05;;;;;;;23.90;9.90;;;;;;;2.46;100.00;99633.47;5018980;28;20029;-68
2020/12/31 03:09:33;;;;;;;17.97;7.60;;;;;;;2.50;100.00;99636.09;5024363;28;20112;-68
2020/12/31 03:11:59;;;;;;;25.10;8.73;;;;;;;2.61;100.00;99634.56;5028595;28;20022;-68
2020/12/31 03:14:24;;;;;;;19.17;7.93;;;;;;;2.68;100.00;99629.53;5030118;28;20290;-67
2020/12/31 03:16:49;;;;;;;20.80;8.40;;;;;;;2.72;100.00;99627.00;5030206;28;20071;-68
2020/12/31 03:19:17;;;;;;;25.67;9.73;;;;;;;2.67;100.00;99626.06;5029872;28;20037;-67
2020/12/31 03:21:43;;;;;;;23.27;8.90;;;;;;;2.70;100.00;99633.84;5024450;28;20038;-68
2020/12/31 03:24:08;;;;;;;20.93;8.70;;;;;;;2.71;100.00;99625.25;5024663;28;20283;-67
2020/12/31 03:26:34;;;;;;;26.97;10.57;;;;;;;2.67;100.00;99628.66;5029407;28;20033;-68
2020/12/31 03:28:59;;;;;;;25.20;9.60;;;;;;;2.60;100.00;99621.66;5012586;28;20034;-68
2020/12/31 03:31:25;;;;;;;23.70;9.57;;;;;;;2.55;100.00;99625.88;5022728;28;20104;-69
2020/12/31 03:33:50;;;;;;;32.30;10.60;;;;;;;2.50;100.00;99636.09;5020059;28;20029;-68
2020/12/31 03:36:15;;;;;;;27.30;11.23;;;;;;;2.44;100.00;99630.00;5028016;28;20071;-68
2020/12/31 03:38:41;;;;;;;23.60;9.57;;;;;;;2.38;100.00;99625.56;5027583;28;20033;-68
2020/12/31 03:41:06;;;;;;;25.70;10.73;;;;;;;2.34;100.00;99624.66;5010184;28;20033;-68
2020/12/31 03:43:32;;;;;;;26.07;11.27;;;;;;;2.31;100.00;99619.47;5019348;28;20504;-68
2020/12/31 03:45:57;;;;;;;32.27;10.90;;;;;;;2.31;100.00;99618.59;5029903;28;20120;-68
2020/12/31 03:48:22;;;;;;;32.17;11.43;;;;;;;2.30;100.00;99622.88;5016620;28;20084;-67
2020/12/31 03:50:48;;;;;;;27.43;11.27;;;;;;;2.28;100.00;99609.06;5022589;28;20022;-68
2020/12/31 03:53:13;;;;;;;29.47;10.90;;;;;;;2.34;100.00;99609.19;5025882;28;20029;-69
2020/12/31 03:55:38;;;;;;;26.37;9.33;;;;;;;2.37;100.00;99610.06;5018862;28;20516;-68
2020/12/31 03:58:04;;;;;;;24.20;10.63;;;;;;;2.40;100.00;99607.53;5009617;28;20059;-68
2020/12/31 04:00:29;;;;;;;25.03;10.40;;;;;;;2.45;100.00;99616.25;5023466;28;20030;-68
2020/12/31 04:02:55;;;;;;;30.20;10.07;;;;;;;2.42;100.00;99606.72;5018741;28;20562;-67
2020/12/31 04:05:20;;;;;;;25.27;10.43;;;;;;;2.40;100.00;99599.81;5021271;28;20104;-68
2020/12/31 04:07:46;;;;;;;26.90;10.00;;;;;;;2.40;100.00;99607.53;5022896;28;20037;-68
2020/12/31 04:10:11;;;;;;;29.03;11.50;;;;;;;2.37;100.00;99602.34;5027912;28;20021;-67
2020/12/31 04:12:37;;;;;;;26.73;10.67;;;;;;;2.37;100.00;99602.34;5028213;28;20504;-68
2020/12/31 04:15:03;;;;;;;24.83;10.20;;;;;;;2.34;100.00;99592.84;5014093;28;20080;-67
2020/12/31 04:17:28;;;;;;;25.20;11.07;;;;;;;2.39;100.00;99590.34;5023517;28;20080;-68
2020/12/31 04:19:53;;;;;;;28.87;11.37;;;;;;;2.39;100.00;99592.91;5028086;28;20036;-68
2020/12/31 04:22:19;;;;;;;27.13;10.17;;;;;;;2.40;100.00;99597.22;5025656;28;20021;-67
2020/12/31 04:24:44;;;;;;;34.00;10.50;;;;;;;2.41;100.00;99588.63;5022784;28;20033;-68
2020/12/31 04:27:10;;;;;;;23.77;9.73;;;;;;;2.43;100.00;99581.81;5024067;28;20052;-68
2020/12/31 04:29:35;;;;;;;29.03;11.27;;;;;;;2.45;100.00;99585.28;5030547;28;20399;-68
2020/12/31 04:32:00;;;;;;;26.27;9.97;;;;;;;2.46;100.00;99587.88;5022279;28;20551;-68
2020/12/31 04:34:26;;;;;;;29.40;10.83;;;;;;;2.47;100.00;99584.47;5033152;28;20021;-68
2020/12/31 04:36:51;;;;;;;25.27;9.87;;;;;;;2.51;100.00;99586.25;5025225;28;20022;-67
2020/12/31 04:39:17;;;;;;;28.57;10.10;;;;;;;2.53;100.00;99588.84;5044403;28;20034;-67
2020/12/31 04:41:43;;;;;;;25.47;10.43;;;;;;;2.58;100.00;99588.06;5029783;28;20396;-69
2020/12/31 04:44:12;;;;;;;25.33;9.27;;;;;;;2.62;100.00;99586.41;5027503;28;20100;-68
2020/12/31 04:46:40;;;;;;;28.77;9.73;;;;;;;2.67;100.00;99576.16;5029443;28;20037;-68
2020/12/31 04:49:10;;;;;;;24.37;8.37;;;;;;;2.84;100.00;99585.88;5029485;28;20330;-68
2020/12/31 04:51:37;;;;;;;18.87;7.80;;;;;;;2.84;100.00;99585.88;5024660;28;20283;-68
2020/12/31 04:54:07;;;;;;;19.87;8.17;;;;;;;2.84;100.00;99595.34;5029500;28;20299;-69
2020/12/31 04:56:37;;;;;;;24.30;9.00;;;;;;;2.74;100.00;99594.31;5023226;28;20807;-69
2020/12/31 04:59:04;;;;;;;18.80;8.13;;;;;;;2.74;100.00;99594.31;5029688;28;20291;-68
2020/12/31 05:01:29;;;;;;;24.20;9.63;;;;;;;2.70;100.00;99592.56;5030428;28;20288;-67
2020/12/31 05:03:55;;;;;;;17.63;7.53;;;;;;;2.69;100.00;99595.13;5030070;28;20800;-68
2020/12/31 05:06:22;;;;;;;19.97;8.10;;;;;;;2.66;100.00;99585.59;5015497;28;20024;-67
2020/12/31 05:08:47;;;;;;;23.00;9.33;;;;;;;2.63;100.00;99586.41;5020586;28;20528;-68
2020/12/31 05:11:13;;;;;;;23.13;9.53;;;;;;;2.64;100.00;99589.88;5013006;28;20335;-71
2020/12/31 05:13:51;;;;;;;25.93;9.47;;;;;;;2.60;100.00;99591.53;5019000;28;20029;-67
2020/12/31 05:16:27;;;;;;;25.73;9.17;;;;;;;2.60;100.00;99598.41;5022289;28;20053;-67
2020/12/31 05:18:53;;;;;;;23.93;9.93;;;;;;;2.57;100.00;99591.50;5022494;28;20280;-69
2020/12/31 05:21:18;;;;;;;27.53;9.97;;;;;;;2.58;100.00;99597.53;5028476;28;20288;-68
2020/12/31 05:23:44;;;;;;;24.03;9.50;;;;;;;2.57;100.00;99588.06;5032374;28;20127;-67
2020/12/31 05:26:10;;;;;;;26.90;10.27;;;;;;;2.56;100.00;99594.06;5023527;28;20044;-67
2020/12/31 05:28:37;;;;;;;25.63;8.90;;;;;;;2.55;100.00;99592.34;5021768;28;20057;-67
2020/12/31 05:31:08;;;;;;;24.50;9.87;;;;;;;2.53;100.00;99589.69;5018547;28;20022;-67
2020/12/31 05:33:36;;;;;;;23.40;9.30;;;;;;;2.56;100.00;99596.66;5024275;28;20286;-68
2020/12/31 05:36:17;;;;;;;25.93;8.97;;;;;;;2.59;100.00;99594.09;5025852;28;20282;-68
2020/12/31 05:38:43;;;;;;;27.97;10.93;;;;;;;2.58;100.00;99592.38;5022367;28;20284;-67
2020/12/31 05:41:09;;;;;;;27.83;10.07;;;;;;;2.53;100.00;99592.28;5017276;28;20303;-67
2020/12/31 05:43:35;;;;;;;32.17;10.57;;;;;;;2.53;100.00;99588.84;5021431;28;20289;-68
2020/12/31 05:46:09;;;;;;;27.20;10.30;;;;;;;2.56;100.00;99594.94;5031967;28;20276;-67
2020/12/31 05:48:34;;;;;;;26.20;10.37;;;;;;;2.57;100.00;99595.81;5029018;28;20104;-68
2020/12/31 05:51:19;;;;;;;24.57;9.23;;;;;;;2.57;100.00;99595.81;5013689;28;20368;-69
2020/12/31 05:53:47;;;;;;;31.03;10.43;;;;;;;2.55;100.00;99587.16;5021486;28;20108;-68
2020/12/31 05:56:15;;;;;;;24.33;10.33;;;;;;;2.61;100.00;99600.16;5016463;28;20704;-67
2020/12/31 05:58:44;;;;;;;27.87;9.90;;;;;;;2.59;100.00;99596.69;5021893;28;20662;-67
2020/12/31 06:01:12;;;;;;;28.37;10.47;;;;;;;2.57;100.00;99607.00;5026081;28;20327;-68
2020/12/31 06:03:46;;;;;;;27.40;10.47;;;;;;;2.53;100.00;99609.47;5025512;28;20288;-67
2020/12/31 06:06:17;;;;;;;24.27;10.30;;;;;;;2.56;100.00;99606.97;5015852;28;20322;-68
2020/12/31 06:09:04;;;;;;;31.60;10.97;;;;;;;2.55;100.00;99610.41;5024975;28;20277;-66
2020/12/31 06:11:32;;;;;;;26.97;10.13;;;;;;;2.56;100.00;99604.38;5016372;28;20635;-68
2020/12/31 06:14:00;;;;;;;23.40;10.03;;;;;;;2.55;100.00;99607.81;5013062;28;20289;-67
2020/12/31 06:16:29;;;;;;;26.20;9.73;;;;;;;2.53;100.00;99619.78;5029035;28;20283;-67
2020/12/31 06:19:03;;;;;;;29.10;10.60;;;;;;;2.50;100.00;99606.84;5030153;28;20411;-68
2020/12/31 06:21:41;;;;;;;29.90;10.20;;;;;;;2.48;100.00;99603.38;5014720;28;20308;-69
2020/12/31 06:24:12;;;;;;;21.77;8.77;;;;;;;2.47;100.00;99618.00;5015929;28;20275;-68
2020/12/31 06:26:41;;;;;;;25.20;9.27;;;;;;;2.44;100.00;99605.06;5025645;28;20690;-67
2020/12/31 06:29:08;;;;;;;20.80;8.03;;;;;;;2.43;100.00;99612.78;5026748;28;20315;-67
2020/12/31 06:31:34;;;;;;;18.10;8.57;;;;;;;2.42;100.00;99622.19;5026294;28;20334;-67
2020/12/31 06:33:59;;;;;;;21.10;8.77;;;;;;;2.43;100.00;99617.94;5028100;28;20276;-68
2020/12/31 06:36:33;;;;;;;22.57;8.97;;;;;;;2.42;100.00;99618.75;5014452;28;20065;-68
2020/12/31 06:38:59;;;;;;;25.40;9.77;;;;;;;2.39;100.00;99618.72;5016745;28;20032;-68
2020/12/31 06:41:30;;;;;;;23.23;10.17;;;;;;;2.39;100.00;99621.28;5016239;28;20358;-68
2020/12/31 06:44:18;;;;;;;20.70;7.90;;;;;;;2.39;100.00;99616.13;5012068;28;20456;-67
2020/12/31 06:46:48;;;;;;;22.50;8.90;;;;;;;2.40;100.00;99623.03;5017996;28;20283;-68
2020/12/31 06:49:15;;;;;;;22.10;9.37;;;;;;;2.36;100.00;99611.78;5013725;28;20281;-68
2020/12/31 06:51:40;;;;;;;20.70;8.73;;;;;;;2.38;100.00;99614.41;5030275;28;20294;-67
2020/12/31 06:54:06;;;;;;;23.40;9.77;;;;;;;2.39;100.00;99626.44;5029751;28;20362;-67
2020/12/31 06:56:48;;;;;;;22.40;8.73;;;;;;;2.39;100.00;99616.13;5023416;28;20057;-67
2020/12/31 06:59:36;;;;;;;26.50;10.20;;;;;;;2.38;100.00;99625.56;5016316;28;20036;-67
2020/12/31 07:02:21;;;;;;;26.63;9.37;;;;;;;2.35;100.00;99625.53;5024246;28;20041;-68
2020/12/31 07:04:47;;;;;;;22.93;8.37;;;;;;;2.35;100.00;99623.81;5012186;28;20295;-68
2020/12/31 07:07:18;;;;;;;22.10;8.37;;;;;;;2.35;100.00;99628.13;5014520;28;20651;-68
2020/12/31 07:09:57;;;;;;;24.43;8.97;;;;;;;2.34;100.00;99628.97;5022793;28;20029;-67
2020/12/31 07:12:40;;;;;;;24.77;8.87;;;;;;;2.34;100.00;99623.81;5012087;28;20272;-68
2020/12/31 07:15:09;;;;;;;25.73;9.23;;;;;;;2.33;100.00;99637.53;5011240;28;20277;-67
2020/12/31 07:17:36;;;;;;;22.20;8.63;;;;;;;2.33;100.00;99637.53;5024693;28;20326;-68
2020/12/31 07:20:04;;;;;;;27.97;9.73;;;;;;;2.31;100.00;99634.94;5014461;28;20363;-67
2020/12/31 07:22:30;;;;;;;26.07;9.43;;;;;;;2.32;100.00;99631.53;5028256;28;20639;-67
2020/12/31 07:25:03;;;;;;;25.13;8.90;;;;;;;2.31;100.00;99629.78;5019745;28;20287;-68
2020/12/31 07:27:40;;;;;;;29.00;9.97;;;;;;;2.30;100.00;99630.63;5017531;28;20509;-68
2020/12/31 07:30:08;;;;;;;32.47;10.77;;;;;;;2.30;100.00;99638.38;5016329;28;20287;-69
2020/12/31 07:33:02;;;;;;;30.07;10.40;;;;;;;2.32;100.00;99640.97;5015843;28;20284;-68
2020/12/31 07:35:49;;;;;;;28.60;10.63;;;;;;;2.32;100.00;99641.84;5018957;28;20280;-67
2020/12/31 07:38:19;;;;;;;29.47;9.60;;;;;;;2.31;100.00;99642.69;5015357;28;20277;-68
2020/12/31 07:40:55;;;;;;;28.43;10.40;;;;;;;2.30;100.00;99638.38;5010517;28;20288;-67
2020/12/31 07:43:24;;;;;;;29.27;10.13;;;;;;;2.31;100.00;99644.38;5018840;28;20359;-68
2020/12/31 07:45:51;;;;;;;32.67;10.17;;;;;;;2.30;100.00;99638.38;5010752;28;20288;-68
2020/12/31 07:48:18;;;;;;;31.90;9.47;;;;;;;2.29;100.00;99635.72;5020438;28;20284;-67
2020/12/31 07:50:44;;;;;;;31.27;9.20;;;;;;;2.28;100.00;99640.03;5012262;28;20272;-68
2020/12/31 07:53:11;;;;;;;26.97;9.67;;;;;;;2.29;100.00;99639.19;5025709;28;20304;-68
2020/12/31 07:55:37;;;;;;;27.83;9.60;;;;;;;2.30;100.00;99647.78;5018313;28;20288;-68
2020/12/31 07:58:07;;;;;;;25.17;9.33;;;;;;;2.32;100.00;99652.16;5013431;28;20315;-67
2020/12/31 08:00:33;;;;;;;21.90;8.60;;;;;;;2.32;100.00;99652.16;5020316;28;20034;-67
2020/12/31 08:02:59;;;;;;;23.27;8.50;;;;;;;2.34;100.00;99650.47;5013799;28;20284;-68
2020/12/31 08:05:26;;;;;;;23.17;9.00;;;;;;;2.35;100.00;99649.63;5011687;28;20303;-68
2020/12/31 08:07:56;;;;;;;23.53;9.27;;;;;;;2.35;100.00;99652.19;5023572;28;20026;-68
2020/12/31 08:10:22;;;;;;;24.07;8.67;;;;;;;2.37;100.00;99659.97;5010419;28;20312;-68
2020/12/31 08:13:00;;;;;;;23.63;8.00;;;;;;;2.38;100.00;99651.38;5014420;28;20276;-67
2020/12/31 08:15:26;;;;;;;19.93;8.33;;;;;;;2.38;100.00;99645.34;5028115;28;20272;-68
2020/12/31 08:17:53;;;;;;;21.33;8.37;;;;;;;2.40;100.00;99653.97;5034811;28;20276;-67
2020/12/31 08:20:21;;;;;;;21.77;8.43;;;;;;;2.42;100.00;99652.28;5019815;28;20346;-68
2020/12/31 08:22:55;;;;;;;22.80;8.17;;;;;;;2.42;100.00;99652.28;5014929;28;20291;-68
2020/12/31 08:25:25;;;;;;;24.20;8.00;;;;;;;2.45;100.00;99654.94;5020236;28;20629;-69
2020/12/31 08:27:55;;;;;;;19.90;7.83;;;;;;;2.47;100.00;99655.84;5017741;28;20315;-68
2020/12/31 08:30:20;;;;;;;22.27;8.30;;;;;;;2.47;100.00;99661.00;5024388;28;20264;-67
2020/12/31 08:32:51;;;;;;;18.77;7.67;;;;;;;2.47;100.00;99664.44;5029363;28;20287;-67
2020/12/31 08:35:41;;;;;;;21.60;7.10;;;;;;;2.47;100.00;99651.53;5022594;28;20172;-68
2020/12/31 08:38:09;;;;;;;18.03;6.67;;;;;;;2.50;100.00;99661.03;5022356;28;20652;-66
2020/12/31 08:40:46;;;;;;;20.17;7.70;;;;;;;2.49;100.00;99660.16;5025896;28;20303;-68
2020/12/31 08:43:32;;;;;;;24.07;7.97;;;;;;;2.49;100.00;99659.31;5024442;28;20288;-67
2020/12/31 08:45:59;;;;;;;19.07;7.53;;;;;;;2.49;100.00;99665.31;5015343;28;20281;-67
2020/12/31 08:48:29;;;;;;;18.77;7.80;;;;;;;2.52;100.00;99659.34;5009472;28;20289;-67
2020/12/31 08:51:05;;;;;;;22.80;7.90;;;;;;;2.51;100.00;99655.91;5020865;28;20303;-68
2020/12/31 08:53:32;;;;;;;18.77;7.33;;;;;;;2.53;100.00;99658.50;5027958;28;20747;-68
2020/12/31 08:55:58;;;;;;;22.87;8.17;;;;;;;2.52;100.00;99659.34;5024994;28;20659;-68
2020/12/31 08:58:28;;;;;;;22.83;7.87;;;;;;;2.55;100.00;99654.25;5031892;28;20334;-68
2020/12/31 09:00:54;;;;;;;15.90;6.53;;;;;;;2.57;100.00;99657.72;5021716;28;20029;-68
2020/12/31 09:03:20;;;;;;;15.90;6.57;;;;;;;2.56;100.00;99656.84;5031102;28;20310;-67
2020/12/31 09:05:57;;;;;;;20.33;6.90;;;;;;;2.60;100.00;99665.50;5030981;28;20751;-67
2020/12/31 09:08:23;;;;;;;17.53;6.60;;;;;;;2.62;100.00;99663.81;5026069;28;20032;-67
2020/12/31 09:10:59;;;;;;;17.60;6.20;;;;;;;2.64;100.00;99657.84;5030827;28;20276;-67
2020/12/31 09:13:24;;;;;;;15.60;5.80;;;;;;;2.65;100.00;99656.13;5025859;28;20299;-67
2020/12/31 09:16:12;;;;;;;13.97;5.93;;;;;;;2.67;100.00;99664.78;5028074;28;20751;-68
2020/12/31 09:18:42;;;;;;;14.67;5.83;;;;;;;2.71;100.00;99660.53;5013985;28;20101;-67
2020/12/31 09:21:07;;;;;;;18.03;7.27;;;;;;;2.70;100.00;99659.66;5024822;28;20509;-67
2020/12/31 09:23:33;;;;;;;16.13;6.27;;;;;;;2.76;100.00;99659.75;5026976;28;20629;-67
2020/12/31 09:25:59;;;;;;;15.17;6.57;;;;;;;2.79;100.00;99662.41;5022570;28;20072;-68
2020/12/31 09:28:25;;;;;;;14.03;5.30;;;;;;;2.81;100.00;99652.97;5028980;28;20327;-68
2020/12/31 09:30:55;;;;;;;17.37;6.23;;;;;;;2.78;100.00;99660.63;5030477;28;20041;-68
2020/12/31 09:33:22;;;;;;;17.30;6.73;;;;;;;2.83;100.00;99655.56;5029435;28;20280;-68
2020/12/31 09:35:48;;;;;;;12.53;5.00;;;;;;;2.81;100.00;99657.25;5019509;28;20375;-68
2020/12/31 09:38:17;;;;;;;13.77;5.20;;;;;;;2.82;100.00;99659.84;5020416;28;20725;-68
2020/12/31 09:40:44;;;;;;;12.43;5.10;;;;;;;2.84;100.00;99660.75;5029155;28;20484;-68
2020/12/31 09:43:10;;;;;;;13.43;5.50;;;;;;;2.87;100.00;99668.53;5028796;28;20276;-69
2020/12/31 09:45:38;;;;;;;11.90;4.93;;;;;;;2.89;100.00;99664.25;5029942;28;20274;-67
2020/12/31 09:48:04;;;;;;;12.23;4.97;;;;;;;2.90;100.00;99662.53;5030012;28;20318;-67
2020/12/31 09:50:30;;;;;;;12.43;5.03;;;;;;;2.98;100.00;99663.53;5022570;28;20378;-68
2020/12/31 09:52:56;;;;;;;11.87;5.03;;;;;;;3.00;100.00;99668.72;5030952;28;20695;-67
2020/12/31 09:55:22;;;;;;;12.10;5.27;;;;;;;2.97;100.00;99666.09;5021214;28;20030;-68
2020/12/31 09:57:48;;;;;;;15.20;5.40;;;;;;;3.02;100.00;99664.44;5011481;28;20034;-68
2020/12/31 10:00:13;;;;;;;12.13;5.47;;;;;;;3.00;100.00;99669.56;5017692;28;20287;-68
2020/12/31 10:02:39;;;;;;;12.70;4.83;;;;;;;3.06;100.00;99668.81;5013713;28;20033;-68
2020/12/31 10:05:05;;;;;;;10.90;4.70;;;;;;;3.01;100.00;99660.13;5031603;28;20025;-68
2020/12/31 10:07:30;;;;;;;10.67;4.63;;;;;;;3.00;100.00;99660.97;5025257;28;20051;-68
2020/12/31 10:09:56;;;;;;;13.80;5.13;;;;;;;2.99;100.00;99665.25;5017467;28;20655;-69
2020/12/31 10:12:21;;;;;;;11.93;4.37;;;;;;;2.97;100.00;99656.63;5022785;28;20030;-67
2020/12/31 10:14:48;;;;;;;13.30;5.43;;;;;;;2.97;100.00;99663.50;5016182;28;20025;-68
2020/12/31 10:17:13;;;;;;;11.30;5.20;;;;;;;2.98;100.00;99660.09;5027860;28;20543;-68
2020/12/31 10:19:39;;;;;;;12.53;4.70;;;;;;;2.96;100.00;99661.78;5013706;28;20280;-68
2020/12/31 10:22:05;;;;;;;12.27;4.73;;;;;;;2.96;100.00;99656.63;5028105;28;20108;-68
2020/12/31 10:24:31;;;;;;;11.53;4.80;;;;;;;3.00;100.00;99658.38;5018364;28;20049;-68
2020/12/31 10:26:57;;;;;;;12.20;4.77;;;;;;;2.98;100.00;99655.78;5027766;28;20271;-68
2020/12/31 10:29:22;;;;;;;13.80;5.33;;;;;;;3.03;100.00;99658.41;5029330;28;20845;-68
2020/12/31 10:31:52;;;;;;;11.57;4.70;;;;;;;2.99;100.00;99651.47;5022868;28;20029;-66
2020/12/31 10:34:18;;;;;;;11.77;4.90;;;;;;;2.99;100.00;99651.47;5024765;28;20473;-67
2020/12/31 10:36:49;;;;;;;12.33;5.30;;;;;;;3.03;100.00;99648.09;5030371;28;20371;-67
2020/12/31 10:39:15;;;;;;;11.97;4.53;;;;;;;3.07;100.00;99652.47;5028944;28;20037;-69
2020/12/31 10:41:40;;;;;;;11.67;4.77;;;;;;;3.08;100.00;99647.31;5029655;28;20284;-67
2020/12/31 10:44:05;;;;;;;11.13;4.37;;;;;;;3.08;100.00;99646.47;5029624;28;20025;-67
2020/12/31 10:46:31;;;;;;;11.80;4.67;;;;;;;3.08;100.00;99649.91;5024349;28;20500;-68
2020/12/31 10:48:56;;;;;;;10.27;3.93;;;;;;;3.11;100.00;99651.66;5028332;28;20039;-67
2020/12/31 10:51:22;;;;;;;12.13;4.93;;;;;;;3.08;100.00;99646.47;5027630;28;20095;-69
2020/12/31 10:53:47;;;;;;;13.20;5.27;;;;;;;3.10;100.00;99647.34;5026638;28;20623;-67
2020/12/31 10:56:18;;;;;;;12.57;5.50;;;;;;;3.04;100.00;99644.69;5031657;28;20037;-67
2020/12/31 10:58:43;;;;;;;11.53;4.70;;;;;;;2.99;100.00;99652.34;5025293;28;20029;-67
2020/12/31 11:01:09;;;;;;;14.30;5.30;;;;;;;3.04;100.00;99655.03;5018197;28;20759;-69
2020/12/31 11:03:34;;;;;;;14.37;5.33;;;;;;;2.98;100.00;99653.19;5013917;28;20033;-67
2020/12/31 11:06:00;;;;;;;10.77;4.57;;;;;;;2.96;100.00;99648.88;5012512;28;20108;-68
2020/12/31 11:08:25;;;;;;;10.13;4.50;;;;;;;2.96;100.00;99646.28;5022119;28;20075;-70
2020/12/31 11:10:50;;;;;;;13.90;5.83;;;;;;;2.99;100.00;99646.31;5028370;28;20052;-67
2020/12/31 11:13:16;;;;;;;13.20;5.70;;;;;;;2.96;100.00;99644.56;5018524;28;20461;-67
2020/12/31 11:15:41;;;;;;;13.50;5.53;;;;;;;2.96;100.00;99643.69;5012261;28;20038;-68
2020/12/31 11:18:08;;;;;;;14.83;6.20;;;;;;;2.98;100.00;99644.59;5016971;28;20109;-67
2020/12/31 11:20:33;;;;;;;14.77;6.10;;;;;;;2.96;100.00;99636.81;5029654;28;20287;-67
2020/12/31 11:22:59;;;;;;;16.77;6.60;;;;;;;3.02;100.00;99642.06;5011314;28;20704;-69
2020/12/31 11:25:25;;;;;;;13.27;5.30;;;;;;;3.02;100.00;99631.72;5027404;28;20037;-67
2020/12/31 11:27:50;;;;;;;17.23;5.57;;;;;;;3.06;100.00;99633.53;5025711;28;20044;-67